Portada
METAR-TAF:

METAR-TAF

Aeroports :

Kunming, Xina

latitud: 25-01N, longitud: 102-41E, altitud: 1892 m

Observació

L'informe es va fer fa 41 minuts, a les 05:00 UTC
Vent 8 kt del Sud-Oest, variant entre Sud i Oest
Temperatura 25°C
Humitat 57%
Pressió 1016 hPa
Visibilitat 10 km o més
Escasses núvols a una alçada de 2300 ft, Cumulus congestus.
Núvols disperses a una alçada de 2300 ft
Cel ennuvolat a una alçada de 4000 ft

METAR: ZPPP 180500Z 23004MPS 180V280 9999 FEW023TCU SCT023 BKN040 25/16 Q1016 NOSIG

Hora: 13:41 (05:41 UTC)

Pronòstic

L'informe es va fer fa 10 hores i 35 minuts, a les 19:06 UTC
Pronòstic vàlid del 18 a les 00 UTC al 18 a les 24 UTC
Vent 12 kt del Sud-Oest
Visibilitat 10 km o més
Núvols disperses a una alçada de 2600 ft

TAF: ZPPP 171906Z 1800/1824 22006MPS 9999 SCT026 TX28/1808Z TN18/1823Z

Observacions i pronòstics meteorològics de més de 4000 aeroports (METAR i TAF).

Les estacions disponibles són els punts grocs i vermells al mapa.

Posi el ratolí al punt desitjat per veure el nom de l'estació.

Feu clic per veure les observacions i els pronòstics meteorològics.

Per canviar el mapa: feu clic els botons verds amb una creu de color negre per apropar; al botó verd amb un guió per allunyar la imatge; o en les fletxes verdes per a mapes adjacents.


METAR-TAF: